Selfridge Angb Airport
KMTC : now visible

Airfield :











YOU CAN JOIN US ON...

 
LOGIN :

Register | Disclaimer

   EN    FR    IT 

 









Legend :    VFR   Marginal VFR   IFR   Intensive IFR   Very Intensive IFR
Visi :
Ceiling :
>= 8 km
>= 3000ft
5 to 8 km
1000 to 3000 ft
1500m to 5 km
500 to 1000 ft
800 to 1500m
200 to 500 ft
< 800m
< 200 ft
Symbols :   Thunderstorms  Fog  Heavy snow  Heavy precipitations  Wind > 20 kt







- Airport Elevation : 580 ft


KMTC - Selfridge Angb

CURRENT METAR :
  • 221256Z 36008KT 10SM BKN140 18/12 A3001 RMK AO2A SLP164 T01800124 $

EXPIRED METARs :
  • 221156Z 35007KT 10SM BKN140 17/13 A2999 RMK AO2A SLP158 T01740131 10201 20172 53014 $
  • 221056Z AUTO 36006KT 10SM OVC140 17/13 A2997 RMK AO2 SLP150 T01730132 $

TAF TAF KMTC
Valid from the 22 at 09:00 until the 23 at 15:00 UTC


220900Z 2209/2315 VRB06KT 9999 FEW020 QNH2995INS
BECMG 2219/2220 29010G15KT 9999 BKN040 QNH3000INS
BECMG 2301/2302 VRB06KT 9999 FEW035 QNH3005INS TX22/2220Z TN14/2309Z LAST NO AMDS AFT 2209 NEXT 2211
No reported NOTAMs for that airfield.



MET'MAP, your aeronautical weather chart ! - Copyright ORBIFLY December 2007 - Disclaimer

ORBIFLY MET'MAP TEAM :

Programming & Development : Alexandra Zaïnal
Concept & Development : Baudouin d'Aumeries
Co-Development & Prog : Marc-Olivier Méhu
Technical & hardware support : Manuel Goepfert

Contact : metmap@orbifly.com




SOURCES & CREDITS :

   NOAA       Earth
Advisory